createdAt,value
2022-11-25T00:01:22.839Z,100659.22
2022-11-25T00:04:27.606Z,100667.94
2022-11-25T00:07:31.747Z,100666.97
2022-11-25T00:10:36.243Z,100651.78
2022-11-25T00:13:40.691Z,100668.19
2022-11-25T00:16:48.724Z,100653.63
2022-11-25T00:19:53.284Z,100634.59
2022-11-25T00:22:57.506Z,100623.59
2022-11-25T00:26:18.597Z,100607.09
2022-11-25T00:29:22.961Z,100575.63
2022-11-25T00:32:27.441Z,100568.72
2022-11-25T00:35:31.811Z,100546.22
2022-11-25T00:38:36.351Z,100535.50
2022-11-25T00:41:59.205Z,100520.13
2022-11-25T00:45:03.619Z,100492.09
2022-11-25T00:48:08.244Z,100466.78
2022-11-25T00:51:12.621Z,100446.38
2022-11-25T00:54:17.163Z,100416.19
2022-11-25T00:57:24.334Z,100431.94
2022-11-25T01:00:28.955Z,100429.91
2022-11-25T01:03:33.917Z,100456.00
2022-11-25T01:06:39.633Z,100463.13
2022-11-25T01:09:43.946Z,100475.47
2022-11-25T01:12:49.029Z,100465.28
2022-11-25T01:15:53.792Z,100466.25
2022-11-25T01:19:00.063Z,100477.31
2022-11-25T01:22:04.105Z,100477.00
2022-11-25T01:25:08.790Z,100485.06
2022-11-25T01:28:14.882Z,100447.16
2022-11-25T01:31:23.033Z,100489.34
2022-11-25T01:34:28.826Z,100485.72
2022-11-25T01:37:34.683Z,100476.50
2022-11-25T01:40:40.857Z,100485.56
2022-11-25T01:43:45.279Z,100479.66
2022-11-25T01:47:04.814Z,100488.56
2022-11-25T01:50:14.116Z,100477.16
2022-11-25T01:53:21.705Z,100461.09
2022-11-25T01:56:29.846Z,100455.41
2022-11-25T01:59:41.391Z,100461.84
2022-11-25T02:02:46.718Z,100467.63
2022-11-25T02:05:58.297Z,100453.22
2022-11-25T02:09:07.619Z,100462.41
2022-11-25T02:12:13.041Z,100444.34
2022-11-25T02:15:37.337Z,100443.34
2022-11-25T02:18:41.948Z,100433.59
2022-11-25T02:21:51.693Z,100408.69
2022-11-25T02:25:03.155Z,100411.91
2022-11-25T02:28:24.356Z,100405.72
2022-11-25T02:31:28.968Z,100382.41
2022-11-25T02:34:34.033Z,100373.69
2022-11-25T02:37:38.461Z,100344.91
2022-11-25T02:40:51.174Z,100342.72
2022-11-25T02:43:56.560Z,100332.69
2022-11-25T02:47:01.103Z,100319.78
2022-11-25T02:50:06.332Z,100308.34
2022-11-25T02:53:10.713Z,100297.09
2022-11-25T02:56:17.332Z,100299.94
2022-11-25T02:59:21.580Z,100268.47
2022-11-25T03:02:25.979Z,100246.41
2022-11-25T03:05:30.535Z,100258.81
2022-11-25T03:08:37.581Z,100249.00
2022-11-25T03:12:03.523Z,100252.53
2022-11-25T03:15:08.336Z,100227.44
2022-11-25T03:18:12.657Z,100231.88
2022-11-25T03:21:17.096Z,100223.63
2022-11-25T03:24:21.529Z,100232.25
2022-11-25T03:27:30.172Z,100211.78
2022-11-25T03:30:35.466Z,100205.16
2022-11-25T03:33:41.071Z,100193.97
2022-11-25T03:36:45.369Z,100177.28
2022-11-25T03:39:50.054Z,100190.53
2022-11-25T03:42:54.919Z,100174.00
2022-11-25T03:46:00.639Z,100160.06
2022-11-25T03:49:05.535Z,100132.53
2022-11-25T03:52:09.972Z,100128.28
2022-11-25T03:55:14.589Z,100117.88
2022-11-25T03:58:22.202Z,100114.69
2022-11-25T04:01:28.470Z,100096.84
2022-11-25T04:04:33.145Z,100094.25
2022-11-25T04:07:37.821Z,100086.81
2022-11-25T04:10:44.655Z,100077.41
2022-11-25T04:13:49.310Z,100082.72
2022-11-25T04:16:53.882Z,100074.03
2022-11-25T04:19:58.496Z,100100.34
2022-11-25T04:23:02.850Z,100092.38
2022-11-25T04:26:08.749Z,100084.63
2022-11-25T04:29:16.997Z,100085.56
2022-11-25T04:32:21.305Z,100073.22
2022-11-25T04:35:26.940Z,100071.53
2022-11-25T04:38:32.176Z,100053.34
2022-11-25T04:41:37.722Z,100043.94
2022-11-25T04:45:01.024Z,100046.88
2022-11-25T04:48:09.089Z,100012.72
2022-11-25T04:51:14.009Z,100024.91
2022-11-25T04:54:18.621Z,100010.25
2022-11-25T04:57:24.749Z,100003.41
2022-11-25T05:00:29.715Z,99997.06
2022-11-25T05:03:34.481Z,99988.50
2022-11-25T05:06:39.332Z,99974.59
2022-11-25T05:09:45.484Z,99953.22
2022-11-25T05:12:57.579Z,99936.75
2022-11-25T05:16:02.040Z,99919.34
2022-11-25T05:19:07.511Z,99925.56
2022-11-25T05:22:13.627Z,99896.81
2022-11-25T05:25:21.567Z,99915.41
2022-11-25T05:28:41.740Z,99918.16
2022-11-25T05:31:47.769Z,99909.25
2022-11-25T05:34:52.714Z,99910.22
2022-11-25T05:37:57.269Z,99915.44
2022-11-25T05:41:04.375Z,99908.47
2022-11-25T05:44:08.917Z,99913.56
2022-11-25T05:47:13.196Z,99895.13
2022-11-25T05:50:18.733Z,99909.13
2022-11-25T05:53:40.321Z,99882.91
2022-11-25T05:56:44.831Z,99880.41
2022-11-25T06:00:16.477Z,99877.06
2022-11-25T06:03:30.929Z,99824.16
2022-11-25T06:06:36.723Z,99823.38
2022-11-25T06:09:41.359Z,99774.66
2022-11-25T06:12:46.285Z,99778.09
2022-11-25T06:15:51.802Z,99805.91
2022-11-25T06:18:56.910Z,99805.97
2022-11-25T06:22:01.319Z,99784.34
2022-11-25T06:25:06.997Z,99787.75
2022-11-25T06:28:13.793Z,99762.44
2022-11-25T06:31:26.648Z,99771.41
2022-11-25T06:34:43.664Z,99737.53
2022-11-25T06:38:03.132Z,99696.56
2022-11-25T06:41:07.389Z,99743.63
2022-11-25T06:44:11.644Z,99747.94
2022-11-25T06:47:16.117Z,99746.19
2022-11-25T06:50:20.513Z,99740.91
2022-11-25T06:53:25.370Z,99737.38
2022-11-25T06:56:30.356Z,99724.38
2022-11-25T06:59:35.331Z,99706.06
2022-11-25T07:02:44.119Z,99686.97
2022-11-25T07:05:51.161Z,99686.19
2022-11-25T07:08:55.594Z,99674.84
2022-11-25T07:11:59.948Z,99683.63
2022-11-25T07:15:04.535Z,99686.25
2022-11-25T07:18:09.091Z,99662.78
2022-11-25T07:21:19.333Z,99629.66
2022-11-25T07:24:23.875Z,99617.44
2022-11-25T07:27:28.570Z,99611.38
2022-11-25T07:34:22.430Z,99584.44
2022-11-25T07:37:28.511Z,99574.84
2022-11-25T07:40:32.991Z,99553.97
2022-11-25T07:43:38.267Z,99551.38
2022-11-25T07:46:46.485Z,99530.50
2022-11-25T07:49:50.873Z,99521.78
2022-11-25T07:52:55.570Z,99506.16
2022-11-25T07:56:03.852Z,99517.44
2022-11-25T07:59:09.716Z,99507.84
2022-11-25T08:02:14.364Z,99486.09
2022-11-25T08:05:18.850Z,99475.66
2022-11-25T08:08:23.239Z,99432.16
2022-11-25T08:11:33.399Z,99453.91
2022-11-25T08:14:37.840Z,99459.09
2022-11-25T08:17:42.573Z,99457.34
2022-11-25T08:20:47.205Z,99472.16
2022-11-25T08:23:53.385Z,99466.00
2022-11-25T08:26:59.699Z,99450.41
2022-11-25T08:30:03.968Z,99457.31
2022-11-25T08:33:08.963Z,99438.22
2022-11-25T08:36:13.700Z,99448.59
2022-11-25T08:39:50.555Z,99441.69
2022-11-25T08:42:44.480Z,99430.38
2022-11-25T08:45:50.437Z,99431.28
2022-11-25T08:48:54.868Z,99445.22
2022-11-25T08:51:59.105Z,99425.22
2022-11-25T08:55:03.430Z,99417.31
2022-11-25T08:58:10.962Z,99412.97
2022-11-25T09:01:15.418Z,99399.97
2022-11-25T09:04:19.734Z,99374.75
2022-11-25T09:07:30.334Z,99400.81
2022-11-25T09:10:36.590Z,99386.06
2022-11-25T09:13:40.477Z,99394.78
2022-11-25T09:16:45.290Z,99365.22
2022-11-25T09:19:49.732Z,99375.59
2022-11-25T09:22:53.943Z,99370.38
2022-11-25T09:25:59.814Z,99373.03
2022-11-25T09:29:05.042Z,99370.41
2022-11-25T09:32:09.577Z,99375.63
2022-11-25T09:35:14.260Z,99356.53
2022-11-25T09:38:18.827Z,99345.22
2022-11-25T09:42:09.009Z,99373.06
2022-11-25T09:45:35.088Z,99367.81
2022-11-25T09:49:08.698Z,99371.28
2022-11-25T09:52:54.703Z,99370.38
2022-11-25T09:56:12.279Z,99364.28
2022-11-25T09:59:28.634Z,99312.09
2022-11-25T10:02:47.178Z,99303.38
2022-11-25T10:06:07.406Z,99312.06
2022-11-25T10:09:16.597Z,99280.78
2022-11-25T10:12:30.816Z,99307.72
2022-11-25T10:15:41.910Z,99286.84
2022-11-25T10:19:14.472Z,99248.59
2022-11-25T10:22:26.927Z,99282.56
2022-11-25T10:25:38.608Z,99307.69
2022-11-25T10:29:05.273Z,99301.69
2022-11-25T10:32:26.352Z,99305.13
2022-11-25T10:35:37.957Z,99262.41
2022-11-25T10:39:11.178Z,99290.22
2022-11-25T10:42:27.989Z,99291.22
2022-11-25T10:45:42.242Z,99286.91
2022-11-25T10:49:30.468Z,99293.91
2022-11-25T10:52:42.136Z,99290.47
2022-11-25T10:56:00.673Z,99322.66
2022-11-25T10:59:15.436Z,99329.59
2022-11-25T11:02:27.140Z,99327.00
2022-11-25T11:05:32.326Z,99349.56
2022-11-25T11:08:41.921Z,99322.63
2022-11-25T11:11:50.751Z,99349.56
2022-11-25T11:15:15.473Z,99322.66
2022-11-25T11:18:46.680Z,99336.56
2022-11-25T11:21:52.168Z,99385.19
2022-11-25T11:25:21.290Z,99381.72
2022-11-25T11:28:27.113Z,99381.72
2022-11-25T11:31:47.976Z,99388.66
2022-11-25T11:35:07.587Z,99383.50
2022-11-25T11:38:31.831Z,99380.84
2022-11-25T11:41:48.494Z,99356.50
2022-11-25T11:45:22.794Z,99383.47
2022-11-25T11:48:35.796Z,99412.19
2022-11-25T11:52:25.742Z,99419.13
2022-11-25T11:56:18.820Z,99421.75
2022-11-25T11:59:47.503Z,99423.47
2022-11-25T12:03:02.434Z,99445.25
2022-11-25T12:06:10.871Z,99449.59
2022-11-25T12:09:21.725Z,99457.41
2022-11-25T12:12:36.234Z,99447.84
2022-11-25T12:16:13.527Z,99458.28
2022-11-25T12:19:42.786Z,99459.13
2022-11-25T12:23:05.273Z,99469.59
2022-11-25T12:26:22.060Z,99458.22
2022-11-25T12:29:51.647Z,99482.50
2022-11-25T12:33:23.042Z,99497.25
2022-11-25T12:36:42.890Z,99491.22
2022-11-25T12:40:04.452Z,99459.06
2022-11-25T12:43:44.064Z,99508.72
2022-11-25T12:46:54.141Z,99502.63
2022-11-25T12:49:59.057Z,99511.31
2022-11-25T12:53:38.336Z,99530.47
2022-11-25T12:56:51.175Z,99507.00
2022-11-25T13:00:40.426Z,99528.75
2022-11-25T13:04:16.465Z,99526.16
2022-11-25T13:07:23.929Z,99545.28
2022-11-25T13:10:40.513Z,99543.50
2022-11-25T13:14:03.964Z,99553.97
2022-11-25T13:17:13.656Z,99552.22
2022-11-25T13:20:30.878Z,99560.09
2022-11-25T13:23:50.861Z,99547.00
2022-11-25T13:26:55.406Z,99560.94
2022-11-25T13:30:01.258Z,99585.28
2022-11-25T13:33:12.774Z,99529.56
2022-11-25T13:36:24.943Z,99576.63
2022-11-25T13:39:38.484Z,99572.28
2022-11-25T13:42:46.179Z,99567.03
2022-11-25T13:45:51.238Z,99567.88
2022-11-25T13:48:56.213Z,99573.13
2022-11-25T13:52:07.317Z,99578.34
2022-11-25T13:55:26.586Z,99576.63
2022-11-25T13:58:36.818Z,99544.38
2022-11-25T14:02:21.494Z,99570.53
2022-11-25T14:06:06.049Z,99578.34
2022-11-25T14:09:35.046Z,99584.44
2022-11-25T14:12:42.589Z,99592.28
2022-11-25T14:16:06.879Z,99577.50
2022-11-25T14:19:51.204Z,99584.47
2022-11-25T14:23:24.137Z,99581.88
2022-11-25T14:26:49.275Z,99573.13
2022-11-25T14:30:00.908Z,99575.72
2022-11-25T14:33:16.770Z,99576.63
2022-11-25T14:36:25.915Z,99567.06
2022-11-25T14:39:41.377Z,99580.94
2022-11-25T14:42:50.029Z,99575.78
2022-11-25T14:46:16.143Z,99583.59
2022-11-25T14:49:44.896Z,99557.47
2022-11-25T14:52:48.389Z,99572.28
2022-11-25T14:55:52.739Z,99567.06
2022-11-25T14:58:59.318Z,99577.50
2022-11-25T15:02:03.719Z,99602.75
2022-11-25T15:05:17.596Z,99605.38
2022-11-25T15:08:23.009Z,99602.75
2022-11-25T15:11:32.452Z,99594.91
2022-11-25T15:14:41.705Z,99592.31
2022-11-25T15:17:46.462Z,99567.91
2022-11-25T15:20:57.172Z,99521.81
2022-11-25T15:24:01.717Z,99550.50
2022-11-25T15:27:18.080Z,99565.31
2022-11-25T15:30:23.153Z,99554.00
2022-11-25T15:33:30.288Z,99540.94
2022-11-25T15:36:35.310Z,99539.19
2022-11-25T15:39:39.909Z,99535.72
2022-11-25T15:42:44.308Z,99525.28
2022-11-25T15:45:53.336Z,99513.06
2022-11-25T15:49:02.478Z,99511.34
2022-11-25T15:52:14.493Z,99489.59
2022-11-25T15:55:39.841Z,99503.50
2022-11-25T15:58:45.107Z,99503.50
2022-11-25T16:01:49.578Z,99489.59
2022-11-25T16:04:53.995Z,99491.31
2022-11-25T16:08:24.952Z,99487.84
2022-11-25T16:11:34.232Z,99462.63
2022-11-25T16:14:38.822Z,99459.16
2022-11-25T16:17:43.466Z,99473.03
2022-11-25T16:20:51.194Z,99476.50
2022-11-25T16:24:01.049Z,99480.00
2022-11-25T16:27:16.095Z,99491.34
2022-11-25T16:30:22.393Z,99510.47
2022-11-25T16:33:27.054Z,99494.81
2022-11-25T16:36:31.405Z,99517.44
2022-11-25T16:39:36.130Z,99485.25
2022-11-25T16:42:41.437Z,99467.84
2022-11-25T16:45:51.692Z,99496.56
2022-11-25T16:48:56.480Z,99507.00
2022-11-25T16:52:00.814Z,99479.13
2022-11-25T16:55:06.690Z,99472.22
2022-11-25T16:58:19.795Z,99468.72
2022-11-25T17:01:27.049Z,99474.81
2022-11-25T17:04:31.701Z,99483.50
2022-11-25T17:07:37.323Z,99453.94
2022-11-25T17:10:44.272Z,99493.09
2022-11-25T17:13:51.712Z,99470.47
2022-11-25T17:16:56.347Z,99470.47
2022-11-25T17:20:01.029Z,99461.75
2022-11-25T17:23:07.601Z,99457.41
2022-11-25T17:26:21.835Z,99463.50
2022-11-25T17:29:43.362Z,99473.06
2022-11-25T17:32:49.448Z,99459.13
2022-11-25T17:35:53.761Z,99467.84
2022-11-25T17:38:58.200Z,99484.38
2022-11-25T17:42:03.492Z,99444.34
2022-11-25T17:45:15.043Z,99466.97
2022-11-25T17:48:21.068Z,99457.41
2022-11-25T17:51:25.310Z,99462.63
2022-11-25T17:54:29.625Z,99460.00
2022-11-25T17:57:36.401Z,99446.97
2022-11-25T18:00:44.341Z,99446.94
2022-11-25T18:03:51.567Z,99423.50
2022-11-25T18:06:55.985Z,99433.06
2022-11-25T18:10:00.245Z,99417.38
2022-11-25T18:13:06.450Z,99439.03
2022-11-25T18:16:12.012Z,99437.31
2022-11-25T18:19:16.246Z,99424.16
2022-11-25T18:22:21.152Z,99413.69
2022-11-25T18:25:28.829Z,99410.97
2022-11-25T18:28:34.004Z,99416.34
2022-11-25T18:31:38.674Z,99418.97
2022-11-25T18:34:42.987Z,99423.44
2022-11-25T18:37:48.250Z,99422.56
2022-11-25T18:40:54.083Z,99407.78
2022-11-25T18:44:02.162Z,99400.75
2022-11-25T18:47:10.775Z,99398.94
2022-11-25T18:50:23.901Z,99390.13
2022-11-25T18:53:28.712Z,99408.38
2022-11-25T18:56:32.968Z,99412.66
2022-11-25T18:59:38.187Z,99398.66
2022-11-25T19:02:42.494Z,99403.84
2022-11-25T19:05:47.367Z,99397.78
2022-11-25T19:08:54.194Z,99402.09
2022-11-25T19:11:58.654Z,99396.91
2022-11-25T19:15:02.971Z,99392.59
2022-11-25T19:18:08.459Z,99384.84
2022-11-25T19:21:22.373Z,99403.09
2022-11-25T19:24:26.760Z,99387.63
2022-11-25T19:27:33.534Z,99383.34
2022-11-25T19:30:38.159Z,99379.66
2022-11-25T19:33:46.958Z,99386.66
2022-11-25T19:36:51.337Z,99388.41
2022-11-25T19:39:55.704Z,99386.50
2022-11-25T19:43:00.032Z,99407.44
2022-11-25T19:46:05.009Z,99428.31
2022-11-25T19:49:10.866Z,99417.75
2022-11-25T19:52:20.774Z,99441.13
2022-11-25T19:55:31.035Z,99429.44
2022-11-25T19:58:35.514Z,99406.13
2022-11-25T20:01:43.822Z,99452.28
2022-11-25T20:04:51.185Z,99450.66
2022-11-25T20:07:55.595Z,99448.72
2022-11-25T20:11:00.282Z,99456.47
2022-11-25T20:14:06.333Z,99454.03
2022-11-25T20:17:15.522Z,99457.53
2022-11-25T20:20:23.887Z,99465.28
2022-11-25T20:23:44.112Z,99457.63
2022-11-25T20:26:49.772Z,99453.91
2022-11-25T20:29:54.279Z,99458.25
2022-11-25T20:32:59.042Z,99463.34
2022-11-25T20:36:12.196Z,99461.44
2022-11-25T20:39:21.584Z,99465.72
2022-11-25T20:42:27.183Z,99480.47
2022-11-25T20:45:32.576Z,99444.66
2022-11-25T20:48:38.936Z,99484.91
2022-11-25T20:51:43.620Z,99487.59
2022-11-25T20:54:47.925Z,99483.25
2022-11-25T20:57:53.800Z,99491.16
2022-11-25T21:00:59.454Z,99497.97
2022-11-25T21:04:03.768Z,99509.25
2022-11-25T21:07:14.902Z,99488.03
2022-11-25T21:10:25.149Z,99515.88
2022-11-25T21:13:31.632Z,99519.56
2022-11-25T21:16:35.846Z,99503.72
2022-11-25T21:19:40.357Z,99534.00
2022-11-25T21:22:51.303Z,99521.47
2022-11-25T21:26:00.775Z,99510.31
2022-11-25T21:29:05.326Z,99538.38
2022-11-25T21:32:24.116Z,99545.75
2022-11-25T21:35:34.521Z,99553.41
2022-11-25T21:38:38.976Z,99565.19
2022-11-25T21:41:43.574Z,99567.22
2022-11-25T21:44:49.075Z,99561.09
2022-11-25T21:47:53.335Z,99553.88
2022-11-25T21:50:57.971Z,99574.94
2022-11-25T21:54:02.252Z,99589.41
2022-11-25T21:57:06.911Z,99580.97
2022-11-25T22:00:25.920Z,99608.13
2022-11-25T22:03:32.502Z,99614.78
2022-11-25T22:06:36.916Z,99618.47
2022-11-25T22:09:41.840Z,99628.63
2022-11-25T22:12:48.387Z,99619.28
2022-11-25T22:15:56.956Z,99630.34
2022-11-25T22:19:02.005Z,99632.34
2022-11-25T22:22:13.683Z,99631.75
2022-11-25T22:25:18.412Z,99653.88
2022-11-25T22:28:28.674Z,99658.03
2022-11-25T22:31:32.973Z,99651.66
2022-11-25T22:34:37.229Z,99656.06
2022-11-25T22:37:42.140Z,99665.69
2022-11-25T22:40:55.063Z,99677.56
2022-11-25T22:43:59.460Z,99665.34
2022-11-25T22:47:04.518Z,99679.38
2022-11-25T22:50:21.939Z,99697.75
2022-11-25T22:53:27.042Z,99695.00
2022-11-25T22:56:31.377Z,99697.72
2022-11-25T22:59:35.909Z,99703.25
2022-11-25T23:02:40.489Z,99708.09
2022-11-25T23:05:44.981Z,99719.09
2022-11-25T23:08:49.328Z,99708.91
2022-11-25T23:11:53.440Z,99712.44
2022-11-25T23:14:57.955Z,99722.44
2022-11-25T23:18:05.082Z,99733.91
2022-11-25T23:21:23.223Z,99734.38
2022-11-25T23:24:27.561Z,99742.22
2022-11-25T23:27:31.642Z,99745.78
2022-11-25T23:30:36.883Z,99766.47
2022-11-25T23:33:42.716Z,99772.97
2022-11-25T23:36:48.057Z,99787.00
2022-11-25T23:39:54.512Z,99776.97
2022-11-25T23:42:58.817Z,99775.47
2022-11-25T23:46:03.334Z,99769.34
2022-11-25T23:49:17.421Z,99767.97
2022-11-25T23:52:28.768Z,99778.13
2022-11-25T23:55:36.912Z,99760.38
2022-11-25T23:58:43.992Z,99763.34
